Devalls Bluff, Arkansas
Current Conditions -  °F | °C
As of 10:15 AM on Thursday 23 Oct 2014 (Local Time) from KSGT Reporting Station
Clear Clear  
Wind Chill: 54°   Ceiling: Unl
Heat Index: 54°   Visibility: 10mi
Dew Point: 46°   Wind: 6mph
Humidity: 77%   Direction: 40°NE
Pressure: 30.22"   Gusts: NA
Location:  34.7129°N, 91.5513°W
Report Text: KSGT 231515Z AUTO 04005KT 10SM CLR 12/08 A3022 RMK AO1
Loading
Personal Weather Stations






























Interactive Weather Map
Tropical Storm Tracking
New forecast layout! Learn more

10-Day Weather Forecast

Advertisements
Track Severe Weather on mobile